Flight Track Log - Related Links

Times and Time Zones

All times are in EDT time to prevent confusion due to time zone crossing. See the AIP1801 flight status page for this flight to view local times or setup timezone preferences in your user account.

Time Position Orientation Groundspeed Altitude Reporting Facility
EDT Latitude Longitude Course Direction KTS MPH feet Rate Location/Type
Fri 09:16:44 PM 45.8008 -108.5167 151° Southeast 139 160 4,700  Level Salt Lake Center
Fri 09:17:46 PM 45.7578 -108.4922 158° South 155 178 6,500 1,659 Climbing Salt Lake Center
Fri 09:18:47 PM 45.7178 -108.4600 151° Southeast 164 189 8,100 1,610 Climbing Salt Lake Center
Fri 09:19:49 PM 45.6722 -108.4244 151° Southeast 173 199 9,800 1,512 Climbing Salt Lake Center
Fri 09:20:50 PM 45.6286 -108.3886 150° Southeast 180 207 11,200 1,452 Climbing Salt Lake Center
Fri 09:21:53 PM 45.5839 -108.3553 152° Southeast 183 211 12,800 1,512 Climbing Salt Lake Center
Fri 09:22:00 PM 45.4714 -108.2814 151° Southeast  Level FlightAware Approximate
Fri 09:22:53 PM 45.5325 -108.3156 152° Southeast 194 223 14,300  Level Salt Lake Center
Fri 09:23:55 PM 45.4825 -108.2761 151° Southeast 204 235 15,600 1,317 Climbing Salt Lake Center
Fri 09:24:56 PM 45.4269 -108.2353 153° Southeast 210 242 17,000 1,268 Climbing Salt Lake Center
Fri 09:25:58 PM 45.3733 -108.1953 152° Southeast 218 251 18,200 1,024 Climbing Salt Lake Center
Fri 09:26:59 PM 45.3211 -108.1528 150° Southeast 219 252 19,100 1,073 Climbing Salt Lake Center
Fri 09:28:01 PM 45.2639 -108.1078 151° Southeast 222 255 20,400 927 Climbing Salt Lake Center
Fri 09:29:02 PM 45.2097 -108.0692 153° Southeast 221 254 21,000 293 Climbing Salt Lake Center
Fri 09:30:04 PM 45.1486 -108.0258 153° Southeast 246 283 21,000  Level Salt Lake Center
Fri 09:31:06 PM 45.0861 -107.9764 151° Southeast 253 291 21,000  Level Salt Lake Center
Fri 09:32:07 PM 45.0258 -107.9303 152° Southeast 248 285 21,000  Level Salt Lake Center
Fri 09:33:09 PM 44.9650 -107.8833 151° Southeast 248 285 21,000  Level Salt Lake Center
Fri 09:34:10 PM 44.9011 -107.8358 152° Southeast 253 291 21,000  Level Salt Lake Center
Fri 09:35:12 PM 44.8369 -107.7881 152° Southeast 254 292 21,000  Level Salt Lake Center
Fri 09:36:13 PM 44.7622 -107.7378 154° Southeast 245 282 21,000  Level Salt Lake Center
Fri 09:37:15 PM 44.7017 -107.6906 151° Southeast 246 283 21,000 -48 Level Salt Lake Center
Fri 09:38:17 PM 44.6411 -107.6450 152° Southeast 247 284 20,900  Descending Salt Lake Center
Fri 09:39:18 PM 44.5808 -107.6014 153° Southeast 245 282 21,000 49 Climbing Salt Lake Center
Fri 09:40:20 PM 44.5211 -107.5600 154° Southeast 242 278 21,000  Level Salt Lake Center
Fri 09:41:21 PM 44.4606 -107.5131 151° Southeast 246 283 21,000  Level Salt Lake Center
Fri 09:42:23 PM 44.3986 -107.4725 155° Southeast 246 283 21,000  Level Salt Lake Center
Fri 09:43:24 PM 44.3372 -107.4269 152° Southeast 249 287 21,000  Level Salt Lake Center
Fri 09:44:26 PM 44.2753 -107.3811 152° Southeast 250 288 21,000 49 Level Salt Lake Center
Fri 09:45:27 PM 44.2003 -107.3311 154° Southeast 249 287 21,100  Climbing Salt Lake Center
Fri 09:46:29 PM 44.1394 -107.2853 152° Southeast 250 288 21,000 -48 Descending Salt Lake Center
Fri 09:47:31 PM 44.0778 -107.2386 151° Southeast 252 290 21,000 49 Level Salt Lake Center
Fri 09:48:32 PM 44.0164 -107.1931 152° Southeast 250 288 21,100  Climbing Salt Lake Center
Fri 09:49:34 PM 43.9539 -107.1494 153° Southeast 251 289 21,000 -58 Descending Salt Lake Center
Fri 09:50:15 PM 43.9033 -107.1161 155° Southeast 253 291 21,000  Level Denver Center
Fri 09:51:17 PM 43.8400 -107.0717 153° Southeast 254 292 21,000  Level Denver Center
Fri 09:52:19 PM 43.7783 -107.0242 151° Southeast 253 291 21,000  Level Denver Center
Fri 09:53:20 PM 43.7147 -106.9811 154° Southeast 253 291 21,000  Level Denver Center
Fri 09:54:22 PM 43.6517 -106.9361 153° Southeast 254 292 21,000 48 Level Denver Center
Fri 09:55:24 PM 43.5872 -106.8894 152° Southeast 260 299 21,100  Climbing Denver Center
Fri 09:56:25 PM 43.5264 -106.8506 155° Southeast 257 296 21,000 -49 Descending Denver Center
Fri 09:57:27 PM 43.4461 -106.7875 150° Southeast 262 302 21,000  Level Denver Center
Fri 09:58:29 PM 43.3842 -106.7461 154° Southeast 259 298 21,000  Level Denver Center
Fri 09:59:33 PM 43.3103 -106.7006 156° South 259 298 21,000  Level Denver Center
Fri 10:00:34 PM 43.2503 -106.6556 151° Southeast 257 296 21,000  Level Denver Center
Fri 10:01:36 PM 43.1903 -106.6131 153° Southeast 254 292 21,000  Level Denver Center
Fri 10:02:38 PM 43.1203 -106.5658 154° Southeast 252 290 21,000  Level Denver Center
Fri 10:03:40 PM 43.0628 -106.5267 154° Southeast 244 281 21,000 49 Level Denver Center
Fri 10:04:41 PM 42.9919 -106.4769 153° Southeast 253 291 21,100  Climbing Denver Center
Fri 10:05:43 PM 42.9314 -106.4331 152° Southeast 257 296 21,000 -48 Descending Denver Center
Fri 10:06:45 PM 42.8600 -106.3828 153° Southeast 260 299 21,000  Level Denver Center
Fri 10:07:47 PM 42.7992 -106.3431 154° Southeast 254 292 21,000  Level Denver Center
Fri 10:08:48 PM 42.7286 -106.2944 153° Southeast 252 290 21,000  Level Denver Center
Fri 10:09:50 PM 42.6697 -106.2536 153° Southeast 249 287 21,000  Level Denver Center
Fri 10:10:52 PM 42.5994 -106.2078 154° Southeast 250 288 21,000  Level Denver Center
Fri 10:11:54 PM 42.5403 -106.1661 153° Southeast 251 289 21,000  Level Denver Center
Fri 10:12:56 PM 42.4819 -106.1250 153° Southeast 249 287 21,000  Level Denver Center
Fri 10:13:58 PM 42.4136 -106.0789 154° Southeast 246 283 21,000 49 Level Denver Center
Fri 10:14:59 PM 42.3531 -106.0386 154° Southeast 251 289 21,100  Climbing Denver Center
Fri 10:16:01 PM 42.2797 -105.9914 155° Southeast 261 300 21,000 -48 Descending Denver Center
Fri 10:17:03 PM 42.2175 -105.9528 155° Southeast 258 297 21,000  Level Denver Center
Fri 10:18:05 PM 42.1478 -105.9039 153° Southeast 253 291 21,000  Level Denver Center
Fri 10:19:07 PM 42.0856 -105.8619 153° Southeast 259 298 21,000 49 Level Denver Center
Fri 10:20:08 PM 42.0158 -105.8119 152° Southeast 257 296 21,100  Climbing Denver Center
Fri 10:21:10 PM 41.9542 -105.7772 157° South 253 291 21,000 -48 Descending Denver Center
Fri 10:22:12 PM 41.8839 -105.7242 151° Southeast 259 298 21,000  Level Denver Center
Fri 10:23:14 PM 41.8217 -105.6850 155° Southeast 259 298 21,000  Level Denver Center
Fri 10:24:15 PM 41.7597 -105.6469 155° Southeast 257 296 21,000  Level Denver Center
Fri 10:25:17 PM 41.6858 -105.5986 154° Southeast 262 302 21,000 48 Level Denver Center
Fri 10:26:19 PM 41.6231 -105.5581 154° Southeast 262 302 21,100  Climbing Denver Center
Fri 10:27:21 PM 41.5519 -105.5081 152° Southeast 259 298 21,000 -677 Descending Denver Center
Fri 10:28:23 PM 41.4931 -105.4717 155° Southeast 250 288 19,700 -1,258 Descending Denver Center
Fri 10:29:25 PM 41.4283 -105.4294 154° Southeast 236 272 18,400 -1,073 Descending Denver Center
Fri 10:30:26 PM 41.3714 -105.3944 155° Southeast 236 272 17,500 -976 Descending Denver Center
Fri 10:31:28 PM 41.3053 -105.3486 152° Southeast 239 275 16,400 -968 Descending Denver Center
Fri 10:32:30 PM 41.2472 -105.3114 154° Southeast 241 277 15,500 -919 Descending Denver Center
Fri 10:33:32 PM 41.1894 -105.2767 156° South 240 276 14,500 -1,065 Descending Denver Center
Fri 10:34:34 PM 41.1225 -105.2308 153° Southeast 241 277 13,300 -732 Descending Denver Center
Fri 10:35:35 PM 41.0656 -105.1967 156° South 238 274 13,000 -146 Descending Denver Center
Fri 10:36:37 PM 40.9978 -105.1514 153° Southeast 245 282 13,000 48 Level Denver Center
Fri 10:37:39 PM 40.9342 -105.1100 154° Southeast 254 292 13,100  Climbing Denver Center
Fri 10:38:41 PM 40.8728 -105.0708 154° Southeast 248 285 13,000 -145 Descending Denver Center
Fri 10:39:43 PM 40.8072 -105.0453 164° South 247 284 12,800 -683 Descending Denver Center
Fri 10:40:44 PM 40.7306 -105.0194 166° South 253 291 11,600 -878 Descending Denver Center
Fri 10:41:46 PM 40.6681 -104.9953 164° South 236 272 11,000 -242 Descending Denver Center
Fri 10:42:48 PM 40.5994 -104.9664 162° South 239 275 11,100 48 Climbing Denver Center
Fri 10:43:50 PM 40.5350 -104.9417 164° South 242 278 11,100  Level Denver Center
Fri 10:44:52 PM 40.4692 -104.9142 162° South 231 266 11,100 -49 Level Denver Center
Fri 10:45:53 PM 40.4131 -104.8928 164° South 213 245 11,000 -49 Descending Denver Center
Fri 10:46:55 PM 40.3561 -104.8733 165° South 212 244 11,000 44 Level Denver Center
Fri 10:48:09 PM 40.2944 -104.8500 164° South 215 247 11,100  Climbing Denver Center
Fri 10:49:11 PM 40.2233 -104.8228 164° South 216 249 11,000  Descending Denver Center
Fri 10:50:13 PM 40.1642 -104.7994 163° South 221 254 11,100  Climbing Denver Center
Fri 10:51:14 PM 40.1147 -104.7717 157° South 227 261 11,000  Descending Denver Center
Fri 10:52:16 PM 40.0522 -104.7128 144° Southeast 226 260 11,100  Climbing Denver Center
Fri 10:53:18 PM 40.0050 -104.6586 139° Southeast 226 260 11,000  Descending Denver Center
Fri 10:54:20 PM 39.9575 -104.6042 139° Southeast 227 261 11,100 49 Climbing Denver Center
Fri 10:55:21 PM 39.9047 -104.5408 137° Southeast 237 273 11,100 -44 Level Denver Center
Fri 10:56:35 PM 39.8428 -104.5186 165° South 246 283 11,000  Descending Denver Center
Fri 10:57:37 PM 39.7578 -104.5247 183° South 247 284 11,100 -339 Climbing Denver Center
Fri 10:58:39 PM 39.6911 -104.5253 180° South 241 277 10,300 -484 Descending Denver Center
Fri 10:59:41 PM 39.6350 -104.5589 205° Southwest 222 255 10,100 -341 Descending Denver Center
Fri 11:00:42 PM 39.6264 -104.6103 258° West 194 223 9,600 -878 Descending Denver Center
Fri 11:01:44 PM 39.6828 -104.6314 344° North 160 184 8,300 -1,065 Descending Denver Center
Fri 11:02:46 PM 39.7208 -104.6433 346° North 148 170 7,400 -726 Descending Denver Center
Fri 11:03:48 PM 39.7600 -104.6431 360° North 143 165 6,800 -634 Descending Denver Center
Fri 11:04:49 PM 39.8000 -104.6422 North 135 155 6,100 -683 Descending Denver Center
Fri 11:05:51 PM 39.8339 -104.6419 360° North 122 140 5,400 -677 Descending Denver Center

Login

Don't have an account? Register now (free) for customized features, flight alerts, and more!